Time;durP1;ratioP1;P1;durP2;ratioP2;P2;SDS_P1;SDS_P2;PMS_P1;PMS_P2;Temp;Humidity;BMP_temperature;BMP_pressure;BME280_temperature;BME280_humidity;BME280_pressure;Samples;Min_cycle;Max_cycle;Signal;HPM_P1;HPM_P2
2021/05/10 00:01:11;;;;;;;3.60;3.17;;;;;;;13.53;58.38;95572.19;5093493;28;20483;-77
2021/05/10 00:03:38;;;;;;;3.73;3.53;;;;;;;13.51;58.03;95574.13;5094108;28;20451;-77
2021/05/10 00:06:05;;;;;;;9.57;3.23;;;;;;;13.45;58.70;95569.38;5093620;28;20447;-76
2021/05/10 00:08:31;;;;;;;3.60;3.30;;;;;;;13.44;58.58;95572.97;5093701;28;20432;-76
2021/05/10 00:10:58;;;;;;;3.93;3.63;;;;;;;13.31;58.56;95572.34;5093680;28;20511;-77
2021/05/10 00:13:27;;;;;;;3.63;3.37;;;;;;;13.28;58.69;95567.31;5093941;28;20794;-77
2021/05/10 00:15:53;;;;;;;9.30;3.07;;;;;;;13.19;59.39;95563.66;5093359;28;20448;-77
2021/05/10 00:18:20;;;;;;;3.50;3.20;;;;;;;13.08;60.03;95565.50;5093511;28;20927;-77
2021/05/10 00:20:48;;;;;;;4.67;3.57;;;;;;;13.01;59.63;95568.66;5093527;28;20520;-77
2021/05/10 00:23:16;;;;;;;4.17;3.30;;;;;;;13.02;59.74;95574.78;5093567;28;20474;-77
2021/05/10 00:25:43;;;;;;;3.60;3.40;;;;;;;13.00;60.59;95564.34;5093675;28;20493;-77
2021/05/10 00:28:10;;;;;;;4.90;4.40;;;;;;;12.97;60.78;95572.50;5093278;28;20439;-76
2021/05/10 00:30:37;;;;;;;4.07;3.77;;;;;;;12.92;61.31;95572.06;5093565;28;20838;-77
2021/05/10 00:33:04;;;;;;;5.20;3.90;;;;;;;12.99;59.95;95570.56;5093378;28;20440;-78
2021/05/10 00:35:31;;;;;;;3.53;3.30;;;;;;;12.98;60.92;95562.78;5093474;28;20496;-77
2021/05/10 00:37:58;;;;;;;3.83;3.53;;;;;;;13.00;60.62;95569.59;5093588;28;20895;-77
2021/05/10 00:40:27;;;;;;;4.00;3.70;;;;;;;12.99;60.56;95567.09;5093200;28;20487;-77
2021/05/10 00:42:54;;;;;;;5.83;4.03;;;;;;;12.95;60.71;95566.53;5093528;28;20927;-77
2021/05/10 00:45:21;;;;;;;4.40;4.10;;;;;;;12.78;61.13;95568.91;5093646;28;20458;-77
2021/05/10 00:47:49;;;;;;;3.73;3.43;;;;;;;12.72;61.94;95564.97;5093565;28;20436;-77
2021/05/10 00:50:16;;;;;;;5.27;3.93;;;;;;;12.60;61.99;95558.06;5093287;28;20447;-77
2021/05/10 00:52:43;;;;;;;4.60;4.20;;;;;;;12.56;62.05;95569.81;5093460;28;20448;-77
2021/05/10 00:55:11;;;;;;;4.60;3.80;;;;;;;12.41;62.83;95567.47;5092993;28;20501;-76
2021/05/10 00:57:41;;;;;;;3.80;3.50;;;;;;;12.39;62.48;95564.13;5093126;28;20469;-77
2021/05/10 01:00:09;;;;;;;6.13;3.63;;;;;;;12.42;62.67;95568.31;5095082;28;20467;-77
2021/05/10 01:02:36;;;;;;;5.97;4.83;;;;;;;12.35;63.34;95564.50;5097242;28;20801;-77
2021/05/10 01:05:05;;;;;;;4.60;3.93;;;;;;;12.35;62.37;95559.25;5061374;28;20442;-77
2021/05/10 01:07:32;;;;;;;4.40;3.67;;;;;;;12.30;63.04;95564.03;5096897;28;20773;-77
2021/05/10 01:09:58;;;;;;;4.23;3.93;;;;;;;12.34;63.57;95562.84;5097206;28;20443;-77
2021/05/10 01:12:25;;;;;;;4.70;3.70;;;;;;;12.40;61.93;95557.06;5097128;28;20508;-77
2021/05/10 01:14:51;;;;;;;3.77;3.43;;;;;;;12.47;62.11;95560.06;5097183;28;20804;-77
2021/05/10 01:17:18;;;;;;;4.23;3.83;;;;;;;12.48;63.00;95556.47;5097097;28;20538;-77
2021/05/10 01:19:44;;;;;;;3.83;3.57;;;;;;;12.49;62.05;95552.88;5096355;28;20447;-77
2021/05/10 01:22:12;;;;;;;4.20;3.80;;;;;;;12.47;62.11;95550.38;5096736;28;20443;-76
2021/05/10 01:24:39;;;;;;;3.80;3.43;;;;;;;12.52;62.12;95549.97;5096905;28;20443;-77
2021/05/10 01:27:06;;;;;;;6.60;4.10;;;;;;;12.53;62.51;95543.75;5096873;28;20424;-77
2021/05/10 01:29:32;;;;;;;4.37;3.70;;;;;;;12.43;63.06;95550.72;5097135;28;20424;-77
2021/05/10 01:31:59;;;;;;;7.70;5.63;;;;;;;12.48;62.47;95551.19;5096348;28;20472;-77
2021/05/10 01:34:25;;;;;;;4.50;4.10;;;;;;;12.17;63.38;95550.22;5096650;28;20431;-77
2021/05/10 01:36:51;;;;;;;4.23;3.83;;;;;;;12.24;62.58;95548.75;5097068;28;20830;-77
2021/05/10 01:39:18;;;;;;;5.27;4.87;;;;;;;12.01;64.02;95554.06;5096146;28;20475;-77
2021/05/10 01:41:45;;;;;;;5.03;4.23;;;;;;;12.10;64.46;95552.47;5096264;28;20838;-77
2021/05/10 01:44:11;;;;;;;4.67;3.90;;;;;;;12.13;64.61;95546.13;5096389;28;20442;-77
2021/05/10 01:46:38;;;;;;;4.27;3.97;;;;;;;12.17;63.74;95551.06;5096271;28;20428;-77
2021/05/10 01:49:04;;;;;;;5.03;4.50;;;;;;;12.20;63.89;95547.34;5060594;28;20443;-76
2021/05/10 01:51:30;;;;;;;3.70;3.40;;;;;;;12.23;63.28;95549.72;5077416;28;20432;-77
2021/05/10 01:53:57;;;;;;;4.13;3.70;;;;;;;12.30;63.75;95543.81;5095992;28;20786;-77
2021/05/10 01:56:23;;;;;;;4.77;4.37;;;;;;;12.34;63.07;95549.66;5096380;28;20489;-77
2021/05/10 01:58:54;;;;;;;7.33;4.40;;;;;;;12.35;63.48;95549.53;5095575;28;20455;-77
2021/05/10 02:01:21;;;;;;;4.27;3.90;;;;;;;12.29;63.27;95542.16;5094902;28;20490;-77
2021/05/10 02:03:48;;;;;;;3.83;3.53;;;;;;;12.21;63.59;95549.84;5094634;28;20771;-77
2021/05/10 02:06:15;;;;;;;6.40;4.30;;;;;;;12.16;63.16;95538.84;5094788;28;20439;-77
2021/05/10 02:08:41;;;;;;;5.30;4.27;;;;;;;12.20;64.05;95548.16;5094921;28;20449;-77
2021/05/10 02:11:08;;;;;;;4.00;3.60;;;;;;;12.18;63.54;95549.25;5095638;28;20432;-77
2021/05/10 02:13:34;;;;;;;5.13;4.10;;;;;;;12.19;63.48;95554.41;5096134;28;20435;-77
2021/05/10 02:16:03;;;;;;;4.00;3.70;;;;;;;12.00;64.46;95551.56;5095587;28;20522;-77
2021/05/10 02:18:31;;;;;;;3.90;3.70;;;;;;;11.97;64.45;95549.19;5095743;28;20444;-77
2021/05/10 02:20:58;;;;;;;5.40;4.20;;;;;;;11.69;65.13;95551.31;5095349;28;20491;-77
2021/05/10 02:23:26;;;;;;;6.27;3.83;;;;;;;11.70;65.36;95555.63;5096263;28;20431;-77
2021/05/10 02:25:55;;;;;;;4.50;4.10;;;;;;;11.81;65.17;95548.72;5095790;28;20452;-77
2021/05/10 02:28:23;;;;;;;5.27;4.23;;;;;;;11.73;65.92;95547.50;5095650;28;20472;-77
2021/05/10 02:30:51;;;;;;;4.93;4.53;;;;;;;11.73;65.46;95555.38;5095506;28;20456;-77
2021/05/10 02:33:22;;;;;;;5.80;4.40;;;;;;;11.71;65.64;95557.28;5095625;28;20458;-77
2021/05/10 02:35:51;;;;;;;4.63;4.23;;;;;;;11.79;65.71;95554.94;5095585;28;20443;-77
2021/05/10 02:38:18;;;;;;;6.17;4.07;;;;;;;11.76;65.91;95559.56;5095164;28;20448;-77
2021/05/10 02:40:46;;;;;;;4.87;4.47;;;;;;;11.71;65.46;95554.66;5094759;28;20491;-77
2021/05/10 02:43:12;;;;;;;5.00;4.60;;;;;;;11.57;66.27;95562.81;5095491;28;20455;-77
2021/05/10 02:45:39;;;;;;;6.10;4.53;;;;;;;11.51;66.77;95547.50;5095329;28;20453;-77
2021/05/10 02:48:06;;;;;;;4.47;4.07;;;;;;;11.64;66.16;95563.16;5094908;28;20927;-77
2021/05/10 02:50:34;;;;;;;6.03;3.97;;;;;;;11.65;65.62;95555.16;5095243;28;20459;-77
2021/05/10 02:53:01;;;;;;;4.33;3.70;;;;;;;11.52;66.94;95567.56;5094904;28;20824;-77
2021/05/10 02:55:28;;;;;;;4.07;3.77;;;;;;;11.51;66.16;95565.06;5095032;28;20449;-77
2021/05/10 02:57:54;;;;;;;8.20;4.53;;;;;;;11.50;66.47;95556.34;5094714;28;20958;-77
2021/05/10 03:00:22;;;;;;;4.50;4.10;;;;;;;11.48;66.88;95566.97;5094981;28;20495;-77
2021/05/10 03:02:49;;;;;;;4.20;3.90;;;;;;;11.15;68.10;95559.91;5095147;28;20564;-76
2021/05/10 03:05:16;;;;;;;4.30;3.93;;;;;;;11.22;67.60;95562.88;5094852;28;20441;-77
2021/05/10 03:07:44;;;;;;;5.90;4.00;;;;;;;11.15;67.70;95567.78;5076030;28;20443;-77
2021/05/10 03:10:13;;;;;;;4.40;4.00;;;;;;;11.07;68.87;95561.44;5094788;28;20451;-77
2021/05/10 03:12:40;;;;;;;5.40;4.67;;;;;;;11.11;68.10;95563.72;5094467;28;20522;-77
2021/05/10 03:15:09;;;;;;;3.90;3.60;;;;;;;11.04;68.75;95573.03;5095133;28;20485;-77
2021/05/10 03:17:35;;;;;;;5.10;4.50;;;;;;;10.86;69.22;95580.47;5094901;28;20546;-77
2021/05/10 03:20:04;;;;;;;4.53;4.17;;;;;;;10.63;71.01;95580.50;5094669;28;20447;-76
2021/05/10 03:22:30;;;;;;;6.13;4.67;;;;;;;10.53;71.53;95577.75;5094251;28;20939;-77
2021/05/10 03:24:57;;;;;;;4.60;4.20;;;;;;;10.58;71.92;95580.03;5094560;28;20455;-77
2021/05/10 03:27:24;;;;;;;5.77;4.33;;;;;;;10.73;71.12;95578.91;5094508;28;20426;-77
2021/05/10 03:29:50;;;;;;;4.80;4.40;;;;;;;10.79;70.91;95581.06;5094072;28;20449;-77
2021/05/10 03:32:17;;;;;;;5.70;5.00;;;;;;;10.92;69.23;95576.56;5094213;28;20447;-76
2021/05/10 03:34:43;;;;;;;8.07;4.70;;;;;;;11.03;69.43;95576.59;5058793;28;20923;-77
2021/05/10 03:37:10;;;;;;;6.67;5.17;;;;;;;11.12;69.21;95581.16;5093844;28;20436;-76
2021/05/10 03:39:36;;;;;;;6.07;5.13;;;;;;;11.21;68.89;95571.72;5094166;28;20523;-78
2021/05/10 03:42:05;;;;;;;5.70;4.60;;;;;;;11.37;69.24;95580.13;5093911;28;20467;-79
2021/05/10 03:44:31;;;;;;;4.70;4.30;;;;;;;11.51;68.65;95578.19;5093877;28;20488;-78
2021/05/10 03:46:57;;;;;;;8.57;4.30;;;;;;;11.83;67.44;95575.72;5094074;28;20442;-76
2021/05/10 03:49:24;;;;;;;6.00;3.97;;;;;;;12.50;65.67;95581.69;5094077;28;20572;-77
2021/05/10 03:51:50;;;;;;;6.70;4.37;;;;;;;13.25;62.49;95583.41;5094021;28;20444;-77
2021/05/10 03:54:16;;;;;;;3.50;3.20;;;;;;;14.22;66.38;95582.88;5074997;28;20444;-80
2021/05/10 03:56:43;;;;;;;3.47;3.17;;;;;;;14.41;57.89;95589.13;5094275;28;20438;-78
2021/05/10 03:59:10;;;;;;;7.03;3.73;;;;;;;14.43;56.77;95596.00;5093779;28;20435;-77
2021/05/10 04:01:36;;;;;;;3.70;3.40;;;;;;;14.38;56.75;95594.69;5093530;28;20471;-76
2021/05/10 04:04:14;;;;;;;5.30;4.30;;;;;;;14.49;56.02;95587.53;5094147;28;20501;-76
2021/05/10 04:06:52;;;;;;;4.80;3.50;;;;;;;14.88;55.10;95588.41;5093967;28;20446;-77
2021/05/10 04:14:43;;;;;;;4.07;3.43;;;;;;;16.33;50.75;95597.78;5051170;28;20428;-76
2021/05/10 04:17:09;;;;;;;3.50;3.20;;;;;;;16.71;50.00;95594.09;5051205;28;20441;-77
2021/05/10 04:19:36;;;;;;;4.20;3.80;;;;;;;17.13;48.49;95598.78;5051288;28;20449;-78
2021/05/10 04:22:02;;;;;;;3.00;2.80;;;;;;;17.60;47.67;95599.31;5051123;28;20512;-77
2021/05/10 04:24:29;;;;;;;3.17;2.90;;;;;;;17.91;46.50;95595.22;5050890;28;20453;-77
2021/05/10 04:26:55;;;;;;;4.13;3.40;;;;;;;18.23;45.87;95593.75;5050843;28;20441;-78
2021/05/10 04:29:21;;;;;;;4.67;4.27;;;;;;;18.19;45.29;95603.00;5051389;28;20473;-79
2021/05/10 04:31:49;;;;;;;4.83;4.30;;;;;;;17.84;46.81;95598.66;5052833;28;20441;-78
2021/05/10 04:34:15;;;;;;;6.70;3.87;;;;;;;17.83;47.53;95600.50;5051158;28;20966;-78
2021/05/10 04:36:41;;;;;;;7.07;4.20;;;;;;;18.22;46.28;95600.03;5054969;28;20441;-78
2021/05/10 04:39:08;;;;;;;9.13;4.93;;;;;;;18.24;46.39;95609.53;5054464;28;20497;-78
2021/05/10 04:41:34;;;;;;;6.00;3.73;;;;;;;18.44;46.21;95604.75;5055014;28;20495;-78
2021/05/10 04:44:00;;;;;;;6.20;3.93;;;;;;;18.69;44.82;95603.03;5054708;28;20450;-78
2021/05/10 04:46:27;;;;;;;5.90;3.83;;;;;;;18.69;44.35;95607.53;5054648;28;20448;-78
2021/05/10 04:48:54;;;;;;;6.10;4.47;;;;;;;18.94;44.50;95608.44;5054655;28;20442;-78
2021/05/10 04:51:20;;;;;;;3.40;3.10;;;;;;;19.33;43.56;95608.63;5078342;28;20449;-77
2021/05/10 04:53:46;;;;;;;5.93;4.13;;;;;;;19.60;42.61;95612.81;5097763;28;20441;-78
2021/05/10 04:56:13;;;;;;;5.20;3.60;;;;;;;19.87;41.80;95604.44;5097080;28;20960;-78
2021/05/10 04:58:39;;;;;;;6.40;3.77;;;;;;;19.89;40.80;95606.94;5097967;28;20472;-76
2021/05/10 05:01:05;;;;;;;8.77;3.80;;;;;;;19.84;41.23;95604.78;5078426;28;20481;-78
2021/05/10 05:03:32;;;;;;;8.60;3.80;;;;;;;19.88;41.18;95605.28;5096902;28;20455;-76
2021/05/10 05:05:59;;;;;;;3.93;3.10;;;;;;;19.68;41.42;95602.16;5096819;28;20554;-75
2021/05/10 05:08:25;;;;;;;6.73;3.40;;;;;;;19.63;42.10;95607.97;5096744;28;20494;-76
2021/05/10 05:10:52;;;;;;;9.53;3.53;;;;;;;19.67;42.31;95597.84;5096461;28;20457;-77
2021/05/10 05:13:22;;;;;;;3.67;2.97;;;;;;;19.98;42.11;95595.28;5096499;28;20442;-77
2021/05/10 05:15:48;;;;;;;4.40;3.80;;;;;;;20.04;40.80;95600.75;5096624;28;20476;-77
2021/05/10 05:18:15;;;;;;;4.33;3.37;;;;;;;20.40;40.76;95595.81;5096443;28;20432;-77
2021/05/10 05:20:41;;;;;;;4.83;3.27;;;;;;;20.79;39.51;95594.94;5096376;28;20491;-76
2021/05/10 05:23:23;;;;;;;4.30;3.47;;;;;;;20.94;41.26;95595.03;5096549;28;20457;-77
2021/05/10 05:25:58;;;;;;;4.90;3.27;;;;;;;20.99;39.17;95592.66;5096279;28;20500;-77
2021/05/10 05:28:25;;;;;;;4.50;4.13;;;;;;;21.00;39.29;95592.50;5096497;28;20886;-77
2021/05/10 05:30:52;;;;;;;5.37;4.00;;;;;;;21.16;38.52;95588.06;5096396;28;20451;-77
2021/05/10 05:33:18;;;;;;;6.40;3.60;;;;;;;20.70;38.91;95601.34;5096515;28;20448;-77
2021/05/10 05:35:44;;;;;;;5.90;3.43;;;;;;;20.98;39.51;95593.69;5096640;28;21172;-77
2021/05/10 05:38:11;;;;;;;4.17;3.77;;;;;;;21.34;38.49;95599.28;5095737;28;20927;-78
2021/05/10 05:40:40;;;;;;;5.17;3.23;;;;;;;21.65;37.87;95591.16;5096399;28;21042;-78
2021/05/10 05:43:08;;;;;;;4.73;3.63;;;;;;;21.70;37.60;95602.16;5096234;28;20535;-77
2021/05/10 05:45:34;;;;;;;4.77;3.87;;;;;;;21.60;37.89;95594.38;5096272;28;20497;-78
2021/05/10 05:48:03;;;;;;;4.37;3.57;;;;;;;21.21;38.38;95605.19;5096147;28;20802;-78
2021/05/10 05:50:29;;;;;;;4.43;3.60;;;;;;;21.38;38.24;95608.59;5096114;28;20980;-78
2021/05/10 05:52:56;;;;;;;5.80;3.73;;;;;;;21.36;37.85;95607.94;5096348;28;20448;-77
2021/05/10 05:55:22;;;;;;;5.40;3.70;;;;;;;21.41;37.95;95604.75;5095940;28;20457;-78
2021/05/10 05:57:49;;;;;;;4.57;3.37;;;;;;;21.62;38.29;95603.06;5095829;28;20440;-78
2021/05/10 06:00:17;;;;;;;3.33;2.93;;;;;;;21.56;37.46;95606.44;5095549;28;20505;-79
2021/05/10 06:02:43;;;;;;;5.03;3.20;;;;;;;21.22;38.09;95600.69;5095984;28;20447;-78
2021/05/10 06:05:11;;;;;;;3.10;2.90;;;;;;;21.16;38.47;95606.75;5096014;28;20440;-78
2021/05/10 06:07:41;;;;;;;3.30;3.10;;;;;;;21.21;38.85;95609.72;5060074;28;20454;-78
2021/05/10 06:10:09;;;;;;;3.27;2.90;;;;;;;21.29;38.36;95607.00;5096182;28;20470;-78
2021/05/10 06:12:35;;;;;;;10.23;2.90;;;;;;;20.82;38.69;95594.63;5095428;28;20448;-79
2021/05/10 06:15:03;;;;;;;3.63;2.60;;;;;;;20.97;38.40;95598.19;5094303;28;20450;-78
2021/05/10 06:17:30;;;;;;;4.83;2.83;;;;;;;20.97;38.98;95594.69;5095485;28;20444;-79
2021/05/10 06:19:57;;;;;;;4.80;2.70;;;;;;;21.40;38.25;95597.75;5095547;28;20447;-79
2021/05/10 06:22:23;;;;;;;4.90;3.00;;;;;;;21.51;37.90;95595.47;5095312;28;20966;-79
2021/05/10 06:24:50;;;;;;;3.50;2.80;;;;;;;21.51;37.13;95597.31;5095367;28;20439;-78
2021/05/10 06:27:16;;;;;;;3.30;3.00;;;;;;;21.92;37.59;95587.06;5095662;28;20444;-78
2021/05/10 06:29:43;;;;;;;3.63;2.97;;;;;;;21.72;37.42;95592.13;5094854;28;20976;-78
2021/05/10 06:32:10;;;;;;;2.90;2.70;;;;;;;21.85;37.21;95581.63;5095577;28;20913;-79
2021/05/10 06:34:36;;;;;;;4.33;3.30;;;;;;;22.05;36.81;95584.63;5095735;28;20784;-78
2021/05/10 06:37:02;;;;;;;3.90;2.90;;;;;;;22.09;36.63;95580.59;5042884;28;20443;-78
2021/05/10 06:39:29;;;;;;;4.50;2.53;;;;;;;22.04;36.37;95577.63;5095182;28;20866;-78
2021/05/10 06:41:55;;;;;;;12.43;3.10;;;;;;;21.85;36.33;95575.47;5094929;28;20489;-78
2021/05/10 06:44:21;;;;;;;5.97;2.37;;;;;;;;;;5095241;28;20451;-79
2021/05/10 06:46:47;;;;;;;7.00;2.27;;;;;;;22.87;35.21;95571.13;5095049;28;21203;-78
2021/05/10 06:49:14;;;;;;;2.90;2.70;;;;;;;23.28;34.73;95573.16;5095265;28;20445;-78
2021/05/10 06:51:41;;;;;;;2.40;2.20;;;;;;;23.21;33.69;95566.91;5094892;28;20528;-79
2021/05/10 06:54:07;;;;;;;2.97;2.70;;;;;;;23.22;33.72;95563.22;5094679;28;20451;-78
2021/05/10 06:56:34;;;;;;;2.97;2.77;;;;;;;22.54;34.46;95562.66;5094646;28;20453;-78
2021/05/10 06:59:00;;;;;;;4.00;2.60;;;;;;;;;;5094241;28;20449;-79
2021/05/10 07:01:26;;;;;;;2.93;2.63;;;;;;;22.28;36.13;95570.34;5094458;28;21117;-78
2021/05/10 07:03:52;;;;;;;2.63;2.43;;;;;;;22.48;35.85;95560.72;5094693;28;20440;-78
2021/05/10 07:06:20;;;;;;;6.90;2.20;;;;;;;22.98;35.91;95559.06;5094521;28;20930;-78
2021/05/10 07:08:46;;;;;;;4.10;3.70;;;;;;;23.40;34.50;95551.00;5058795;28;20453;-78
2021/05/10 07:11:13;;;;;;;2.57;2.37;;;;;;;23.66;33.61;95553.13;5094093;28;21018;-79
2021/05/10 07:13:39;;;;;;;2.80;2.60;;;;;;;23.41;33.66;95551.84;5094215;28;20453;-78
2021/05/10 07:16:07;;;;;;;2.20;1.97;;;;;;;23.25;33.95;95558.31;5094365;28;20455;-79
2021/05/10 07:18:34;;;;;;;3.80;2.30;;;;;;;22.58;34.82;95555.09;5093785;28;21100;-78
2021/05/10 07:21:00;;;;;;;5.50;3.37;;;;;;;22.68;34.85;95559.13;5094276;28;20485;-78
2021/05/10 07:23:27;;;;;;;2.60;2.40;;;;;;;23.08;34.90;95551.53;5075208;28;20981;-78
2021/05/10 07:25:54;;;;;;;3.10;2.60;;;;;;;23.38;34.75;95544.19;5094582;28;20461;-78
2021/05/10 07:28:20;;;;;;;6.47;2.67;;;;;;;23.24;33.95;95551.28;5094665;28;20503;-78
2021/05/10 07:30:48;;;;;;;3.77;2.63;;;;;;;22.72;34.92;95546.19;5094105;28;20458;-79
2021/05/10 07:33:14;;;;;;;4.13;2.33;;;;;;;22.83;34.57;95553.75;5094483;28;20534;-78
2021/05/10 07:35:41;;;;;;;3.23;2.63;;;;;;;23.14;34.60;95546.28;5094028;28;20453;-78
2021/05/10 07:38:07;;;;;;;4.90;2.13;;;;;;;23.17;34.08;95542.38;5094215;28;20446;-78
2021/05/10 07:40:34;;;;;;;3.10;2.73;;;;;;;23.10;34.10;95538.78;5093557;28;20969;-78
2021/05/10 07:43:01;;;;;;;2.60;2.40;;;;;;;22.85;34.35;95541.88;5094252;28;20452;-79
2021/05/10 07:45:29;;;;;;;2.80;2.03;;;;;;;23.10;34.75;95536.09;5094021;28;20460;-78
2021/05/10 07:47:56;;;;;;;2.80;2.60;;;;;;;23.18;34.57;95526.13;5058506;28;20452;-78
2021/05/10 07:50:23;;;;;;;3.63;2.80;;;;;;;23.25;34.19;95522.66;5094081;28;20451;-78
2021/05/10 07:52:50;;;;;;;5.03;2.43;;;;;;;23.08;34.19;95533.63;5057950;28;20452;-78
2021/05/10 07:55:18;;;;;;;2.93;2.60;;;;;;;23.22;33.68;95515.84;5093985;28;20454;-78
2021/05/10 07:57:45;;;;;;;3.93;2.83;;;;;;;23.50;34.37;95521.22;5094406;28;20516;-78
2021/05/10 08:00:15;;;;;;;3.27;2.60;;;;;;;23.84;33.59;95528.50;5094268;28;20504;-78
2021/05/10 08:02:43;;;;;;;4.90;2.30;;;;;;;23.70;33.66;95518.72;5093609;28;20486;-78
2021/05/10 08:05:10;;;;;;;2.60;2.40;;;;;;;23.62;33.36;95518.88;5058334;28;20876;-79
2021/05/10 08:07:36;;;;;;;2.47;2.17;;;;;;;23.41;34.50;95525.06;5093899;28;20447;-78
2021/05/10 08:10:04;;;;;;;4.80;2.43;;;;;;;23.38;34.47;95526.28;5093214;28;20450;-78
2021/05/10 08:12:30;;;;;;;3.20;2.50;;;;;;;23.19;34.43;95524.28;5093751;28;20446;-78
2021/05/10 08:14:58;;;;;;;2.40;2.20;;;;;;;22.83;34.28;95516.28;5093482;28;20793;-78
2021/05/10 08:17:25;;;;;;;2.20;2.10;;;;;;;22.28;35.33;95515.03;5093355;28;20877;-78
2021/05/10 08:19:51;;;;;;;2.57;2.30;;;;;;;21.95;36.99;95520.72;5093361;28;20460;-78
2021/05/10 08:22:18;;;;;;;7.13;2.70;;;;;;;21.74;36.45;95520.66;5093330;28;20481;-78
2021/05/10 08:24:44;;;;;;;5.03;2.40;;;;;;;21.89;36.80;95513.44;5093592;28;20435;-79
2021/05/10 08:27:10;;;;;;;11.17;2.60;;;;;;;21.94;36.39;95511.03;5074479;28;20433;-78
2021/05/10 08:29:37;;;;;;;2.07;1.90;;;;;;;21.66;36.35;95502.00;5093630;28;20455;-79
2021/05/10 08:32:04;;;;;;;8.60;2.50;;;;;;;21.87;36.46;95502.13;5093389;28;20441;-78
2021/05/10 08:34:30;;;;;;;2.63;2.43;;;;;;;21.51;37.08;95496.66;5057548;28;20440;-78
2021/05/10 08:36:57;;;;;;;5.10;2.80;;;;;;;21.79;37.96;95494.19;5093587;28;20440;-77
2021/05/10 08:39:24;;;;;;;2.73;2.53;;;;;;;21.65;37.57;95478.97;5074436;28;20494;-78
2021/05/10 08:41:50;;;;;;;3.67;2.50;;;;;;;21.55;38.08;95484.59;5093376;28;20490;-78
2021/05/10 08:44:17;;;;;;;2.30;2.10;;;;;;;21.88;37.24;95479.72;5093541;28;20452;-78
2021/05/10 08:46:44;;;;;;;6.30;2.67;;;;;;;22.05;37.41;95477.72;5092995;28;20444;-78
2021/05/10 08:49:12;;;;;;;3.53;2.67;;;;;;;21.98;37.35;95468.78;5093194;28;20441;-79
2021/05/10 08:51:39;;;;;;;11.27;2.80;;;;;;;21.95;37.20;95469.94;5093311;28;20452;-78
2021/05/10 08:54:17;;;;;;;8.33;2.43;;;;;;;22.20;38.08;95467.81;5093137;28;20493;-78
2021/05/10 08:56:43;;;;;;;4.07;3.77;;;;;;;22.15;37.44;95470.22;5093101;28;20456;-78
2021/05/10 08:59:09;;;;;;;2.43;2.13;;;;;;;22.14;37.80;95470.41;5092916;28;20444;-78
2021/05/10 09:01:46;;;;;;;2.77;2.53;;;;;;;22.19;36.52;95458.16;5092412;28;20863;-78
2021/05/10 09:04:14;;;;;;;13.77;12.27;;;;;;;22.42;36.20;95441.13;5092786;28;20881;-78
2021/05/10 09:06:41;;;;;;;3.30;3.10;;;;;;;22.71;36.50;95451.72;5092694;28;20497;-78
2021/05/10 09:09:09;;;;;;;6.37;2.50;;;;;;;22.76;36.11;95451.97;5093017;28;20442;-79
2021/05/10 09:11:36;;;;;;;3.03;2.43;;;;;;;22.23;36.32;95451.41;5092734;28;20446;-78
2021/05/10 09:14:02;;;;;;;3.53;3.07;;;;;;;22.30;36.32;95448.81;5091445;28;20444;-78
2021/05/10 09:16:34;;;;;;;3.40;2.37;;;;;;;22.23;36.29;95438.03;5091674;28;20469;-78
2021/05/10 09:19:01;;;;;;;3.17;2.83;;;;;;;22.48;36.78;95448.38;5091767;28;20453;-79
2021/05/10 09:21:29;;;;;;;2.80;2.60;;;;;;;22.19;36.41;95444.78;5093413;28;20484;-78
2021/05/10 09:23:57;;;;;;;4.10;2.47;;;;;;;22.01;37.22;95441.66;5095478;28;20442;-78
2021/05/10 09:26:30;;;;;;;2.77;2.57;;;;;;;22.16;38.14;95436.31;5095261;28;20899;-78
2021/05/10 09:28:57;;;;;;;2.87;2.33;;;;;;;22.23;37.27;95423.84;5095121;28;20444;-78
2021/05/10 09:31:23;;;;;;;3.70;2.37;;;;;;;22.03;37.94;95428.94;5095382;28;20448;-78
2021/05/10 09:33:50;;;;;;;2.47;2.27;;;;;;;21.81;37.25;95428.03;5095199;28;20444;-78
2021/05/10 09:39:28;;;;;;;5.20;2.60;;;;;;;22.04;38.41;95419.94;5109811;27;20507;-76
2021/05/10 09:41:58;;;;;;;3.13;2.47;;;;;;;22.02;37.83;95405.91;5109718;28;20452;-79
2021/05/10 09:44:39;;;;;;;4.20;2.50;;;;;;;21.99;38.20;95400.94;5109628;28;20441;-79
2021/05/10 09:47:05;;;;;;;3.40;2.33;;;;;;;21.90;37.52;95400.19;5109504;28;20448;-76
2021/05/10 09:49:43;;;;;;;3.23;2.60;;;;;;;22.00;38.86;95399.09;5109581;28;20444;-79
2021/05/10 09:52:20;;;;;;;5.30;2.80;;;;;;;22.17;37.45;95396.03;5109874;28;20483;-79
2021/05/10 09:54:54;;;;;;;2.90;2.67;;;;;;;21.69;37.25;95388.66;5109815;28;20983;-78
2021/05/10 09:57:20;;;;;;;2.97;2.70;;;;;;;21.92;38.27;95387.47;5090166;28;20934;-78
2021/05/10 10:00:14;;;;;;;2.83;2.63;;;;;;;21.88;38.94;95388.03;5109891;28;20447;-78
2021/05/10 10:02:41;;;;;;;2.80;2.60;;;;;;;21.92;38.40;95381.31;5109390;28;20950;-78
2021/05/10 10:05:09;;;;;;;3.23;2.13;;;;;;;21.69;38.37;95389.47;5109378;28;20455;-81
2021/05/10 10:07:38;;;;;;;3.40;2.13;;;;;;;21.54;38.73;95384.13;5056928;28;20451;-78
2021/05/10 10:10:06;;;;;;;3.83;2.60;;;;;;;21.74;39.54;95381.72;5109480;28;20444;-78
2021/05/10 10:12:33;;;;;;;2.40;2.20;;;;;;;21.79;39.37;95375.81;5073094;28;20424;-78
2021/05/10 10:15:00;;;;;;;2.60;2.40;;;;;;;21.89;39.27;95358.47;5073114;28;20984;-80
2021/05/10 10:17:26;;;;;;;3.03;2.63;;;;;;;21.75;39.48;95369.19;5109249;28;20510;-78
2021/05/10 10:19:54;;;;;;;6.23;2.70;;;;;;;21.79;38.45;95367.81;5089982;28;20939;-78
2021/05/10 10:22:22;;;;;;;5.57;2.63;;;;;;;21.85;38.94;95356.34;5109008;28;20440;-78
2021/05/10 10:24:49;;;;;;;6.43;2.97;;;;;;;21.90;38.44;95351.28;5108900;28;20792;-79
2021/05/10 10:27:16;;;;;;;6.93;2.70;;;;;;;22.05;39.96;95354.78;5109061;28;20467;-79
2021/05/10 10:29:46;;;;;;;7.53;4.23;;;;;;;22.16;38.41;95358.78;5109061;28;20853;-78
2021/05/10 10:32:18;;;;;;;5.03;2.53;;;;;;;22.24;39.38;95354.13;5108992;28;20644;-79
2021/05/10 10:34:47;;;;;;;3.30;2.97;;;;;;;22.44;38.30;95356.19;5108721;28;20446;-79
2021/05/10 10:37:16;;;;;;;3.10;2.77;;;;;;;22.45;38.43;95353.31;5108442;28;20492;-79
2021/05/10 10:39:49;;;;;;;3.07;2.83;;;;;;;22.64;38.49;95359.88;5108648;28;20462;-78
2021/05/10 10:42:25;;;;;;;5.60;3.10;;;;;;;22.55;37.06;95351.16;5108482;28;20543;-78
2021/05/10 10:44:56;;;;;;;9.23;3.13;;;;;;;22.66;37.70;95346.28;5108517;28;20444;-77
2021/05/10 10:47:44;;;;;;;5.37;2.40;;;;;;;22.54;37.85;95340.63;5108465;28;20470;-77
2021/05/10 10:50:12;;;;;;;4.13;3.10;;;;;;;22.71;37.31;95334.00;5096886;28;20452;-77
2021/05/10 10:52:50;;;;;;;3.40;2.60;;;;;;;22.70;37.50;95343.03;5094847;28;20458;-76
2021/05/10 10:55:19;;;;;;;3.70;2.80;;;;;;;22.64;38.33;95321.59;5094754;28;20843;-76
2021/05/10 10:57:47;;;;;;;3.20;2.80;;;;;;;22.81;37.11;95326.47;5094489;28;20547;-78
2021/05/10 11:00:16;;;;;;;3.23;3.03;;;;;;;22.59;37.40;95324.84;5094514;28;20452;-76
2021/05/10 11:02:46;;;;;;;3.83;3.40;;;;;;;22.68;37.64;95318.31;5094431;28;20478;-77
2021/05/10 11:05:15;;;;;;;3.40;3.20;;;;;;;22.76;37.47;95315.50;5094491;28;20937;-76
2021/05/10 11:07:49;;;;;;;3.37;3.07;;;;;;;22.98;36.81;95320.84;5094670;28;20540;-78
2021/05/10 11:10:43;;;;;;;3.33;3.00;;;;;;;23.04;36.80;95309.34;5095031;28;20822;-77
2021/05/10 11:13:30;;;;;;;6.97;2.90;;;;;;;23.00;36.67;95308.91;5094602;28;20450;-77
2021/05/10 11:15:57;;;;;;;5.97;2.70;;;;;;;22.80;36.97;95310.56;5094400;28;20458;-76
2021/05/10 11:18:43;;;;;;;2.50;2.40;;;;;;;22.61;35.89;95298.72;5094287;28;20486;-77
2021/05/10 11:21:41;;;;;;;2.97;2.77;;;;;;;22.81;37.48;95291.69;5094019;28;20525;-77
2021/05/10 11:24:11;;;;;;;4.70;2.67;;;;;;;22.89;36.59;95295.25;5094479;28;20960;-77
2021/05/10 11:26:40;;;;;;;2.57;2.37;;;;;;;23.16;36.79;95291.72;5094421;28;20489;-77
2021/05/10 11:29:09;;;;;;;4.67;2.57;;;;;;;23.25;35.44;95290.50;5094109;28;20450;-77
2021/05/10 11:31:37;;;;;;;2.57;2.40;;;;;;;23.40;35.91;95280.47;5074915;28;20803;-77
2021/05/10 11:34:12;;;;;;;5.33;2.53;;;;;;;23.39;34.78;95270.78;5094144;28;20447;-77
2021/05/10 11:36:50;;;;;;;2.67;2.57;;;;;;;23.29;34.40;95273.03;5094105;28;20432;-77
2021/05/10 11:39:24;;;;;;;5.13;2.50;;;;;;;23.35;33.57;95264.19;5093949;28;20478;-76
2021/05/10 11:41:56;;;;;;;2.60;2.40;;;;;;;23.39;34.06;95264.59;5094106;28;20465;-77
2021/05/10 11:44:26;;;;;;;3.23;2.80;;;;;;;23.36;34.18;95256.97;5093963;28;20932;-77
2021/05/10 11:46:54;;;;;;;2.80;2.60;;;;;;;23.37;33.97;95263.97;5075025;28;20450;-78